Home > Products > Valid Products > TAF

000
FTUS42 KKEY 170100 AAA
TAFEYW
TAF AMD
KEYW 170126Z 1701/1724 VRB04KT P6SM VCSH SCT025 BKN150
     FM170230 09005KT P6SM FEW025=



000
FTUS42 KKEY 170100 AAA
TAFEYW
TAF AMD
KEYW 170126Z 1701/1724 VRB04KT P6SM VCSH SCT025 BKN150
     FM170230 09005KT P6SM FEW025=



000
FTUS42 KKEY 170000 RRA
TAFEYW
TAF
KEYW 170030Z 1701/1724 VRB04KT P6SM FEW025 BKN150=



000
FTUS42 KKEY 161800 AAA
TAFEYW
TAF AMD
KEYW 161824Z 1618/1718 13006KT P6SM VCTS SCT022CB SCT040
     FM162300 VRB04KT P6SM FEW025=



000
FTUS42 KKEY 161800 AAA
TAFEYW
TAF AMD
KEYW 161824Z 1618/1718 13006KT P6SM VCTS SCT022CB SCT040
     FM162300 VRB04KT P6SM FEW025=



000
FTUS42 KKEY 161700
TAFEYW
TAF
KEYW 161731Z 1618/1718 12007KT P6SM VCSH SCT022 SCT050
     FM162300 VRB04KT P6SM FEW025=



000
FTUS42 KKEY 161700
TAFEYW
TAF
KEYW 161731Z 1618/1718 12007KT P6SM VCSH SCT022 SCT050
     FM162300 VRB04KT P6SM FEW025=



000
FTUS42 KKEY 161400 AAA
TAFEYW
TAF AMD
KEYW 161450Z 1615/1712 08007KT P6SM FEW022
     FM162000 08005KT P6SM VCSH SCT022 BKN050
     FM162300 VRB03KT P6SM SCT025 BKN100=



000
FTUS42 KKEY 161100
TAFEYW
TAF
KEYW 161130Z 1612/1712 08004KT P6SM FEW020
     FM162000 11006KT P6SM VCSH SCT025 BKN050
     FM162300 VRB05KT P6SM SCT025 BKN100=



000
FTUS42 KKEY 161100
TAFEYW
TAF
KEYW 161130Z 1612/1712 08004KT P6SM FEW020
     FM162000 11006KT P6SM VCSH SCT025 BKN050
     FM162300 VRB05KT P6SM SCT025 BKN100=



000
FTUS42 KKEY 160800 AAA
TAFEYW
TAF AMD
KEYW 160858Z 1609/1706 08004KT P6SM FEW020
     FM161900 11006KT P6SM VCSH SCT025 BKN050
     FM162300 VRB05KT P6SM SCT025 BKN100=



000
FTUS42 KKEY 160800 AAA
TAFEYW
TAF AMD
KEYW 160858Z 1609/1706 08004KT P6SM FEW020
     FM161900 11006KT P6SM VCSH SCT025 BKN050
     FM162300 VRB05KT P6SM SCT025 BKN100=



000
FTUS42 KKEY 160500
TAFEYW
TAF
KEYW 160537Z 1606/1706 08004KT P6SM FEW020
     FM161800 11006KT P6SM VCSH SCT025 BKN050
     FM162200 VRB05KT P6SM SCT025 BKN100=



000
FTUS42 KKEY 160500
TAFEYW
TAF
KEYW 160537Z 1606/1706 08004KT P6SM FEW020
     FM161800 11006KT P6SM VCSH SCT025 BKN050
     FM162200 VRB05KT P6SM SCT025 BKN100=



000
FTUS42 KKEY 160100 RRA
TAFEYW
TAF
KEYW 160118Z 1601/1624 09008KT P6SM SCT025=



000
FTUS42 KKEY 160100 RRA
TAFEYW
TAF
KEYW 160118Z 1601/1624 09008KT P6SM SCT025=



000
FTUS42 KKEY 151700
TAFEYW
TAF
KEYW 151735Z 1518/1618 10008G16KT P6SM SCT025
     FM160100 09008KT P6SM SCT025=



000
FTUS42 KKEY 151700
TAFEYW
TAF
KEYW 151735Z 1518/1618 10008G16KT P6SM SCT025
     FM160100 09008KT P6SM SCT025=



000
FTUS42 KKEY 151400 AAA
TAFEYW
TAF AMD
KEYW 151449Z 1515/1612 10008G16KT P6SM SCT025=



000
FTUS42 KKEY 151400 AAA
TAFEYW
TAF AMD
KEYW 151449Z 1515/1612 10008G16KT P6SM SCT025=



000
FTUS42 KKEY 151100
TAFEYW
TAF
KEYW 151140Z 1512/1612 06005KT P6SM SCT025
     FM151430 10010KT P6SM SCT025=



000
FTUS42 KKEY 151100
TAFEYW
TAF
KEYW 151140Z 1512/1612 06005KT P6SM SCT025
     FM151430 10010KT P6SM SCT025=



000
FTUS42 KKEY 150900 AAA
TAFEYW
TAF AMD
KEYW 150904Z 1509/1606 10011KT P6SM FEW024 BKN150=



000
FTUS42 KKEY 150900 AAA
TAFEYW
TAF AMD
KEYW 150904Z 1509/1606 10011KT P6SM FEW024 BKN150=



000
FTUS42 KKEY 150500 RRA
TAFEYW
TAF
KEYW 150546Z 1506/1606 10011KT P6SM FEW024 BKN120=



000
FTUS42 KKEY 150500 RRA
TAFEYW
TAF
KEYW 150546Z 1506/1606 10011KT P6SM FEW024 BKN120=



000
FTUS42 KKEY 142300 RRA
TAFEYW
TAF
KEYW 142346Z 1500/1524 10011KT P6SM FEW024 BKN120=



000
FTUS42 KKEY 141700
TAFEYW
TAF
KEYW 141736Z 1418/1518 12006KT P6SM SCT030 SCT040 BKN060=



000
FTUS42 KKEY 141700
TAFEYW
TAF
KEYW 141736Z 1418/1518 12006KT P6SM SCT030 SCT040 BKN060=



000
FTUS42 KKEY 141400 AAB
TAFEYW
TAF AMD
KEYW 141439Z 1415/1512 14011KT P6SM VCSH SCT025
      TEMPO 1415/1418 20010KT 6SM SHRA BKN025=



000
FTUS42 KKEY 141400 AAB
TAFEYW
TAF AMD
KEYW 141439Z 1415/1512 14011KT P6SM VCSH SCT025
      TEMPO 1415/1418 20010KT 6SM SHRA BKN025=



000
FTUS42 KKEY 141300 AAA
TAFEYW
TAF AMD
KEYW 141322Z 1413/1512 11011KT P6SM VCSH SCT025
      TEMPO 1413/1415 20012G20KT 3SM SHRA BKN025=



000
FTUS42 KKEY 141100
TAFEYW
TAF
KEYW 141127Z 1412/1512 11011KT P6SM VCSH SCT025
     FM141400 13011KT P6SM SCT025=



000
FTUS42 KKEY 140900 AAA
TAFEYW
TAF AMD
KEYW 140941Z 1410/1506 10007KT P6SM SCT020 BKN100
     FM141200 15010KT P6SM FEW020 SCT100=



000
FTUS42 KKEY 140500
TAFEYW
TAF
KEYW 140538Z 1406/1506 15011KT P6SM -RA SCT020 BKN050 BKN100
     FM141200 13009KT P6SM FEW020 BKN100=



000
FTUS42 KKEY 140200 AAC
TAFEYW
TAF AMD
KEYW 140223Z 1402/1424 15008KT 3SM SHRA SCT026 BKN030 BKN040
     FM141200 13009KT P6SM FEW023 SCT050=



000
FTUS42 KKEY 140200 AAC
TAFEYW
TAF AMD
KEYW 140223Z 1402/1424 15008KT 3SM SHRA SCT026 BKN030 BKN040
     FM141200 13009KT P6SM FEW023 SCT050=



    US Dept of Commerce
    National Oceanic and Atmospheric Administration
    National Weather Service
    1325 East West Highway
    Silver Spring, MD 20910
    Page Author: NWS Internet Services Team
Disclaimer
Information Quality
Credits
Glossary
Privacy Policy
Freedom of Information Act (FOIA)
About Us
Career Opportunities